Apple River, IL

8:58 AM CDT on August 01, 2014 (GMT -0500)
KILSTOCK2 Elev 959 ft | 42.40 °N, 89.99 °W | Change Station

Current weather conditions updated 1 minute ago

Clear
Clear
69.2 °F
Feels Like 69.2 °F
N
3.0
Wind Variable Wind from West
Gusts 4.0 mph

Today is forecast to be Warmer than yesterday. Afternoon showers and thunderstorms.

Today
High -- | Low -- °F
--% Chance of Precip.
Yesterday
High -- | Low -- °F
Precip. -- in
5:52 AM 8:20 PM
Waxing Crescent, 26% visible
Pressure 30.10 in
Visibility 10.0 miles
Clouds Clear
Dew Point 65 °F
Humidity 86%
Rainfall 0.00 in
Snow Depth Not available.
UV 3 out of 12
Pollen 6.50 out of 12
Air Quality Not available.
Flu Activity Not available.
METAR KPVB 011335Z AUTO 00000KT 10SM CLR 20/17 A3010 RMK AO1 T01950172

More Conditions Fewer Conditions

Pressure 30.10 in
Visibility 10.0 miles
Clouds Clear
Dew Point 65 °F
Humidity 86%
Rainfall 0.00 in
Snow Depth Not available.
UV 3 out of 12
Pollen 6.50 out of 12
Air Quality Not available.
Flu Activity Not available.
METAR KPVB 011335Z AUTO 00000KT 10SM CLR 20/17 A3010 RMK AO1 T01950172

More Conditions Fewer Conditions

10-Day Weather Forecast

Almanac

Astronomy

Aug. 01, 2014 Rise Set
Actual Time 5:52 AM CDT 8:20 PM CDT
Civil Twilight 5:20 AM CDT 8:51 PM CDT
Nautical Twilight 4:41 AM CDT 9:31 PM CDT
Astronomical Twilight 3:56 AM CDT 10:15 PM CDT
Moon 11:24 AM CDT 10:56 PM CDT
Length of Visible Light 15h 31m
Length of Day
14h 27m
Tomorrow will be 2m 13s shorter.
Waxing Crescent, 26% of the Moon is Illuminated
Today
Waxing Crescent
Aug 3
First Quarter
Aug 10
Full
Aug 17
Last Quarter
Aug 25
New

Today's Extremes

State Highs State Lows

Community

WunderPhotos

Upload Photos

1,739,557 photos uploaded!

Nearby

Snow Depth

Station Depth Elevation
No new snow has been reported.

Earthquake Activity

City Distance Mag. Time & Date
No recent earthquake activity has been reported nearby.
Minimum magnitude displayed is 2.5.

Coastal Water Temperatures

Place Temperature
No Stations Reporting

Nearby Weather Stations

Station Location Temp. Heat Index Dew Point Humidity Wind Precip. Elev Updated Type
Stockton, IL 69.2 °F - 65 °F 86% West  at  3.0 mph 0.00 in / hr 959 ft 8:57 AM CDT Normal
Guilford Township, Elizabeth, IL 72.5 °F 74 °F 63 °F 72% SW  at  4.0 mph 0.00 in / hr 1102 ft 8:58 AM CDT Rapid Fire
Galena Territory, Galena, IL 65.8 °F - 65 °F 98% NNE  at  0.0 mph 0.00 in / hr 856 ft 8:58 AM CDT Rapid Fire
IGRAM, Elizabeth, IL 70.2 °F 70 °F 64 °F 82% North  at  0.0 mph 0.00 in / hr 885 ft 8:45 AM CDT Normal
Harbor Oak, Galena, IL 72.8 °F 72 °F 67 °F 83% SW  at  0.0 mph 0.00 in / hr 795 ft 8:58 AM CDT Rapid Fire
Quality Hill, Galena, IL 67.0 °F - 63 °F 88% West  at  0.0 mph - / hr 761 ft 8:45 AM CDT Normal
South of Lena, Lena, IL 68.5 °F - 64 °F 84% West  at  0.0 mph 0.00 in / hr 919 ft 8:57 AM CDT Normal

Show More Stations Show Fewer Stations